Data for 10/29/2014

Time Sea-Level Adjusted Pressure Absolute Pressure Temperature Relative Humidity Dew Point   
(mb) (inHg) (mb) (inHg) (C) (F) (%) (C) (F)
00:05 1019 30.09 848 25.04 4.9 40.7 46 -5.7 21.8
00:10 1019 30.09 848 25.04 4.9 40.8 45 -5.9 21.3
00:15 1019 30.09 848 25.04 5.1 41.2 47 -5.3 22.4
00:20 1019 30.09 848 25.04 4.7 40.5 49 -5.2 22.7
00:25 1019 30.09 848 25.04 4.3 39.7 50 -5.3 22.5
00:30 1019 30.09 848 25.04 4.4 39.8 49 -5.4 22.3
00:35 1019 30.09 848 25.04 4.7 40.5 49 -5.1 22.8
00:40 1019 30.09 848 25.04 4.6 40.2 53 -4.3 24.3
00:45 1019 30.09 848 25.04 3.8 38.9 52 -5.2 22.7
00:50 1019 30.09 848 25.04 4.3 39.8 50 -5.2 22.6
00:55 1019 30.09 848 25.04 4.4 40 49 -5.2 22.6
01:00 1019 30.09 848 25.04 4.5 40 52 -4.6 23.6
01:05 1019 30.09 848 25.04 3.9 39.1 52 -5.1 22.9
01:10 1019 30.09 848 25.04 4.6 40.3 51 -4.6 23.7
01:15 1019 30.09 848 25.04 4.4 39.9 53 -4.4 24
01:20 1018 30.06 848 25.04 4.4 39.9 53 -4.5 24
01:25 1018 30.06 848 25.04 4.4 39.9 52 -4.6 23.7
01:30 1019 30.09 848 25.04 4.6 40.3 51 -4.6 23.7
01:35 1018 30.06 848 25.04 4.7 40.4 51 -4.5 23.9
01:40 1019 30.09 848 25.04 4.7 40.5 51 -4.6 23.7
01:45 1019 30.09 848 25.04 4.9 40.9 49 -4.9 23.1
01:50 1019 30.09 848 25.04 5.2 41.3 48 -5 23
01:55 1019 30.09 848 25.04 5.5 41.8 47 -5.1 22.8
02:00 1019 30.09 848 25.04 5.5 42 48 -4.6 23.6
02:05 1019 30.09 848 25.04 5.6 42.1 47 -4.8 23.4
02:10 1019 30.09 848 25.04 5.8 42.5 47 -4.7 23.6
02:15 1019 30.09 848 25.04 5.9 42.6 45 -5 23
02:20 1019 30.09 848 25.04 6.1 43 45 -5.1 22.9
02:25 1019 30.09 848 25.04 6.1 43 46 -4.8 23.4
02:30 1019 30.09 848 25.04 5.9 42.6 48 -4.2 24.4
02:35 1019 30.09 849 25.07 5.7 42.3 47 -4.7 23.6
02:40 1019 30.09 849 25.07 5.7 42.3 48 -4.5 23.9
02:45 1020 30.12 849 25.07 5.6 42.1 49 -4.2 24.4
02:50 1020 30.12 849 25.07 5.7 42.2 49 -4.1 24.6
02:55 1020 30.12 849 25.07 5.7 42.2 52 -3.4 25.8
03:00 1020 30.12 849 25.07 5.7 42.2 45 -5.3 22.5
03:05 1020 30.12 849 25.07 6.1 43.1 47 -4.2 24.5
03:10 1020 30.12 849 25.07 6.2 43.1 51 -3.3 26
03:15 1020 30.12 849 25.07 6.2 43.2 59 -1.1 30
03:20 1020 30.12 849 25.07 5.4 41.7 63 -1 30.3
03:25 1020 30.12 849 25.07 5.6 42.1 65 -0.4 31.2
03:30 1019 30.09 848 25.04 5.5 41.9 69 0.3 32.5
03:35 1019 30.09 849 25.07 5.5 41.8 70 0.5 32.9
03:40 1020 30.12 849 25.07 5.2 41.4 70 0.1 32.2
03:45 1019 30.09 849 25.07 5.2 41.4 69 0.1 32.1
03:50 1019 30.09 849 25.07 5.1 41.2 70 0.1 32.2
03:55 1019 30.09 849 25.07 5.1 41.2 72 0.4 32.7
04:00 1019 30.09 848 25.04 5.1 41.2 72 0.4 32.8
04:05 1019 30.09 848 25.04 5.1 41.2 74 0.9 33.6
04:10 1019 30.09 848 25.04 5.1 41.1 73 0.6 33.1
04:15 1019 30.09 848 25.04 5.1 41.2 74 0.9 33.6
04:20 1019 30.09 848 25.04 5.1 41.1 75 1 33.8
04:25 1019 30.09 848 25.04 5 41 75 0.9 33.6
04:30 1019 30.09 848 25.04 5 41.1 74 0.8 33.5
04:35 1019 30.09 848 25.04 5.1 41.1 75 1 33.8
04:40 1019 30.09 848 25.04 5 41.1 75 1 33.9
04:45 1019 30.09 848 25.04 5 41 75 1 33.8
04:50 1019 30.09 848 25.04 5 41 74 0.7 33.3
04:55 1019 30.09 848 25.04 5.2 41.3 74 0.9 33.5
05:00 1019 30.09 848 25.04 5.2 41.4 73 0.8 33.5
05:05 1019 30.09 849 25.07 5.3 41.5 72 0.7 33.2
05:10 1019 30.09 849 25.07 5.2 41.4 73 0.7 33.3
05:15 1019 30.09 849 25.07 5.2 41.4 73 0.8 33.4
05:20 1019 30.09 849 25.07 5.2 41.4 74 0.9 33.6
05:25 1019 30.09 849 25.07 5.2 41.3 73 0.8 33.4
05:30 1020 30.12 849 25.07 5.2 41.3 74 0.8 33.5
05:35 1020 30.12 849 25.07 5.2 41.4 74 0.9 33.6
05:40 1020 30.12 849 25.07 5.2 41.4 74 0.9 33.6
05:45 1020 30.12 849 25.07 5.3 41.5 74 1 33.9
05:50 1020 30.12 849 25.07 5.3 41.5 75 1.2 34.1
05:55 1020 30.12 849 25.07 5.3 41.6 74 1 33.8
06:00 1019 30.09 849 25.07 5.4 41.8 75 1.3 34.4
06:05 1019 30.09 849 25.07 5.3 41.5 76 1.3 34.4
06:10 1020 30.12 849 25.07 5.2 41.4 73 0.8 33.5
06:15 1020 30.12 849 25.07 5.5 41.9 73 1 33.8
06:20 1020 30.12 849 25.07 5.7 42.2 72 1 33.8
06:25 1020 30.12 849 25.07 5.9 42.7 68 0.6 33
06:30 1020 30.12 849 25.07 6.1 43 69 0.9 33.6
06:35 1020 30.12 849 25.07 5.9 42.7 74 1.6 35
06:40 1020 30.12 849 25.07 5.6 42.1 73 1.1 34.1
06:45 1020 30.12 849 25.07 5.6 42 74 1.4 34.5
06:50 1020 30.12 849 25.07 5.6 42.1 74 1.3 34.4
06:55 1020 30.12 849 25.07 5.5 41.8 77 1.8 35.2
07:00 1020 30.12 849 25.07 5.4 41.7 76 1.5 34.6
07:05 1020 30.12 849 25.07 5.5 42 75 1.4 34.6
07:10 1020 30.12 849 25.07 5.7 42.3 67 0.1 32.3
07:15 1020 30.12 849 25.07 6.2 43.1 70 1.1 33.9
07:20 1020 30.12 849 25.07 6.3 43.3 68 0.9 33.7
07:25 1020 30.12 849 25.07 6.3 43.3 69 1.1 34
07:30 1020 30.12 849 25.07 6.4 43.5 66 0.5 33
07:35 1020 30.12 849 25.07 6.5 43.6 66 0.6 33.1
07:40 1020 30.12 849 25.07 6.4 43.5 66 0.6 33
07:45 1020 30.12 849 25.07 6.4 43.6 67 0.7 33.2
07:50 1020 30.12 849 25.07 6.4 43.6 67 0.7 33.3
07:55 1020 30.12 849 25.07 6.4 43.5 65 0.2 32.4
08:00 1020 30.12 850 25.1 6.5 43.7 63 0.1 32.1
08:05 1020 30.12 850 25.1 6.6 43.8 61 -0.4 31.3
08:10 1020 30.12 850 25.1 6.7 44 59 -0.7 30.8
08:15 1021 30.15 850 25.1 6.7 44.1 56 -1.4 29.6
08:20 1021 30.15 850 25.1 6.7 44.1 58 -0.9 30.4
08:25 1021 30.15 850 25.1 6.7 44.1 56 -1.3 29.6
08:30 1021 30.15 850 25.1 6.7 44.1 58 -0.9 30.4
08:35 1021 30.15 850 25.1 6.8 44.2 56 -1.4 29.5
08:40 1021 30.15 850 25.1 6.9 44.4 53 -1.9 28.5
08:45 1021 30.15 850 25.1 7.2 44.9 53 -1.7 28.9
08:50 1021 30.15 850 25.1 7.5 45.5 52 -1.6 29.1
08:55 1021 30.15 850 25.1 7.7 45.8 52 -1.5 29.3
09:00 1021 30.15 850 25.1 7.8 46 51 -1.6 29.2
09:05 1021 30.15 850 25.1 7.8 46.1 53 -1.2 29.8
09:10 1021 30.15 850 25.1 7.8 46 53 -1.2 29.8
09:15 1021 30.15 850 25.1 7.7 45.8 52 -1.6 29.1
09:20 1021 30.15 850 25.1 7.6 45.6 53 -1.5 29.3
09:25 1021 30.15 850 25.1 7.7 45.8 50 -2 28.4
09:30 1021 30.15 850 25.1 7.8 46.1 52 -1.5 29.3
09:35 1021 30.15 850 25.1 7.9 46.1 51 -1.5 29.2
09:40 1021 30.15 850 25.1 7.9 46.2 48 -2.3 27.8
09:45 1021 30.15 850 25.1 8 46.3 48 -2.4 27.8
09:50 1021 30.15 850 25.1 8 46.3 47 -2.6 27.3
09:55 1021 30.15 850 25.1 8.1 46.6 46 -2.8 27
10:00 1021 30.15 850 25.1 8.2 46.7 47 -2.5 27.5
10:05 1021 30.15 850 25.1 8.3 46.9 48 -2 28.3
10:10 1021 30.15 850 25.1 8.4 47.1 46 -2.4 27.6
10:15 1021 30.15 850 25.1 8.5 47.4 46 -2.3 27.9
10:20 1021 30.15 851 25.13 8.6 47.5 47 -2.1 28.3
10:25 1021 30.15 851 25.13 8.6 47.4 49 -1.4 29.5
10:30 1021 30.15 851 25.13 8.5 47.2 51 -1.1 30.1
10:35 1022 30.18 851 25.13 8.4 47.2 50 -1.4 29.4
10:40 1022 30.18 851 25.13 8.4 47.1 48 -2 28.5
10:45 1022 30.18 851 25.13 8.6 47.5 46 -2.2 28
10:50 1022 30.18 851 25.13 8.9 48 46 -2 28.5
10:55 1022 30.18 851 25.13 9.2 48.6 45 -2 28.5
11:00 1022 30.18 851 25.13 9.6 49.2 45 -1.9 28.7
11:05 1022 30.18 851 25.13 9.8 49.6 43 -2.1 28.2
11:10 1022 30.18 851 25.13 10 49.9 44 -1.6 29.2
11:15 1022 30.18 851 25.13 10.3 50.5 43 -1.7 28.9
11:20 1022 30.18 851 25.13 10.6 51.1 43 -1.5 29.3
11:25 1022 30.18 851 25.13 11 51.7 41 -1.7 28.9
11:30 1022 30.18 851 25.13 11.6 52.8 38 -2.3 27.8
11:35 1022 30.18 851 25.13 12.1 53.8 36 -2.5 27.6
11:40 1022 30.18 851 25.13 12.2 53.9 37 -2 28.4
11:45 1022 30.18 851 25.13 11.7 53 36 -3 26.5
11:50 1022 30.18 851 25.13 11.8 53.2 35 -3.2 26.2
11:55 1022 30.18 851 25.13 12.2 54 37 -1.9 28.6
12:00 1022 30.18 851 25.13 11.1 52 41 -1.8 28.8
12:05 1022 30.18 851 25.13 10.6 51 41 -1.9 28.5
12:10 1022 30.18 851 25.13 10.4 50.6 40 -2.6 27.4
12:15 1022 30.18 851 25.13 10.6 51.1 41 -2 28.4
12:20 1022 30.18 851 25.13 10.7 51.2 41 -2.2 28.1
12:25 1022 30.18 851 25.13 11 51.8 39 -2.4 27.7
12:30 1022 30.18 851 25.13 11.8 53.2 37 -2.2 28
12:35 1022 30.18 851 25.13 11.9 53.4 38 -1.9 28.6
12:40 1022 30.18 851 25.13 11.7 53 39 -1.9 28.5
12:45 1022 30.18 851 25.13 11.7 53.1 39 -1.9 28.6
12:50 1022 30.18 851 25.13 11.7 53.1 39 -1.9 28.6
12:55 1022 30.18 851 25.13 11.6 52.8 38 -2.1 28.1
13:00 1022 30.18 851 25.13 11.9 53.3 37 -2.2 28
13:05 1022 30.18 851 25.13 12.4 54.3 35 -2.4 27.6
13:10 1022 30.18 851 25.13 12.7 54.9 31 -3.7 25.3
13:15 1022 30.18 851 25.13 12.8 55 30 -4.4 24
13:20 1022 30.18 851 25.13 12.6 54.6 31 -4.2 24.5
13:25 1022 30.18 851 25.13 12.5 54.5 31 -4 24.8
13:30 1022 30.18 851 25.13 12.5 54.6 31 -4.2 24.4
13:35 1022 30.18 851 25.13 12.5 54.6 31 -4.2 24.5
13:40 1022 30.18 851 25.13 12.4 54.3 31 -4 24.8
13:45 1022 30.18 851 25.13 12.1 53.8 32 -3.9 24.9
13:50 1022 30.18 851 25.13 12.1 53.8 32 -4 24.9
13:55 1022 30.18 851 25.13 12.2 54 32 -4 24.8
14:00 1022 30.18 851 25.13 12.3 54.1 32 -4 24.8
14:05 1022 30.18 851 25.13 12.3 54.1 31 -4.3 24.2
14:10 1022 30.18 851 25.13 12.3 54.2 31 -4.1 24.6
14:15 1022 30.18 851 25.13 12.3 54.2 33 -3.6 25.5
14:20 1022 30.18 851 25.13 12.3 54.1 32 -3.8 25.1
14:25 1022 30.18 851 25.13 12.2 53.9 32 -3.8 25.2
14:30 1022 30.18 851 25.13 12.2 53.9 32 -3.8 25.1
14:35 1022 30.18 851 25.13 12.2 54 32 -3.8 25.1
14:40 1022 30.18 851 25.13 12.1 53.7 33 -3.9 25
14:45 1022 30.18 851 25.13 12 53.5 33 -3.9 24.9
14:50 1022 30.18 851 25.13 12.3 54.1 32 -3.7 25.3
14:55 1022 30.18 851 25.13 12.5 54.5 32 -3.5 25.6
15:00 1022 30.18 851 25.13 12.5 54.5 32 -3.8 25.2
15:05 1022 30.18 851 25.13 13 55.4 30 -4.2 24.4
15:10 1022 30.18 851 25.13 13.2 55.8 30 -4 24.7
15:15 1022 30.18 851 25.13 13.1 55.6 29 -4.3 24.3
15:20 1022 30.18 851 25.13 13.1 55.6 30 -3.9 24.9
15:25 1022 30.18 851 25.13 12.9 55.2 30 -4 24.7
15:30 1022 30.18 852 25.16 13.2 55.7 29 -4.3 24.2
15:35 1022 30.18 852 25.16 13.1 55.6 29 -4.4 24.1
15:40 1022 30.18 852 25.16 13.4 56.1 29 -4.2 24.4
15:45 1022 30.18 852 25.16 13.5 56.2 29 -4.2 24.4
15:50 1022 30.18 852 25.16 13 55.4 30 -4.1 24.6
15:55 1022 30.18 852 25.16 12.8 55 30 -4.1 24.6
16:00 1023 30.21 852 25.16 12.9 55.1 30 -4.2 24.5
16:05 1023 30.21 852 25.16 12.7 54.8 30 -4.2 24.4
16:10 1023 30.21 852 25.16 12.4 54.2 31 -4.1 24.7
16:15 1023 30.21 852 25.16 12.3 54.1 31 -4.3 24.2
16:20 1023 30.21 852 25.16 12.5 54.5 31 -4 24.8
16:25 1023 30.21 852 25.16 12.3 54.1 32 -4 24.9
16:30 1023 30.21 852 25.16 12.1 53.9 32 -4 24.9
16:35 1023 30.21 852 25.16 12 53.7 32 -3.9 25
16:40 1023 30.21 852 25.16 11.8 53.2 33 -3.9 24.9
16:45 1023 30.21 852 25.16 11.7 53 34 -3.6 25.5
16:50 1023 30.21 852 25.16 11.6 53 34 -3.6 25.5
16:55 1023 30.21 852 25.16 11.7 53 35 -3.4 25.8
17:00 1023 30.21 852 25.16 11.7 53.1 35 -3.3 26.1
17:05 1023 30.21 852 25.16 11.8 53.2 35 -3.3 26.1
17:10 1023 30.21 852 25.16 11.5 52.8 37 -2.7 27.1
17:15 1023 30.21 852 25.16 10.8 51.5 39 -2.6 27.4
17:20 1023 30.21 852 25.16 10.3 50.5 40 -2.7 27.1
17:25 1023 30.21 852 25.16 10.1 50.1 41 -2.7 27.2
17:30 1023 30.21 852 25.16 9.8 49.6 43 -2.3 27.8
17:35 1023 30.21 852 25.16 9.4 48.9 42 -2.9 26.9
17:40 1023 30.21 852 25.16 9.4 48.8 42 -2.8 27
17:45 1023 30.21 852 25.16 9.5 49 42 -2.9 26.8
17:50 1023 30.21 853 25.19 9.4 48.9 41 -3 26.6
17:55 1023 30.21 852 25.16 9.3 48.7 42 -2.9 26.8
18:00 1023 30.21 853 25.19 9.1 48.3 42 -3 26.6
18:05 1023 30.21 853 25.19 8.9 48 43 -3.1 26.4
18:10 1023 30.21 853 25.19 8.8 47.9 43 -3 26.5
18:15 1023 30.21 853 25.19 8.7 47.7 43 -3.3 26.1
18:20 1024 30.24 853 25.19 8.7 47.6 42 -3.4 26
18:25 1024 30.24 853 25.19 8.6 47.4 44 -3.1 26.5
18:30 1024 30.24 853 25.19 8.2 46.8 45 -3 26.7
18:35 1024 30.24 853 25.19 7.8 46 46 -3.2 26.3
18:40 1024 30.24 853 25.19 7.7 45.9 46 -3.2 26.2
18:45 1024 30.24 853 25.19 7.7 45.9 45 -3.4 25.9
18:50 1024 30.24 853 25.19 8.1 46.6 44 -3.4 25.8
18:55 1024 30.24 853 25.19 8.2 46.7 44 -3.2 26.2
19:00 1024 30.24 853 25.19 8 46.4 45 -3.2 26.2
19:05 1024 30.24 853 25.19 7.8 46.1 46 -3.2 26.2
19:10 1024 30.24 853 25.19 7.7 45.8 46 -3.3 26
19:15 1024 30.24 853 25.19 7.3 45.2 48 -3 26.6
19:20 1024 30.24 853 25.19 7 44.6 48 -3.3 26
19:25 1024 30.24 853 25.19 6.9 44.5 49 -3 26.6
19:30 1024 30.24 853 25.19 6.7 44.1 49 -3.1 26.4
19:35 1024 30.24 853 25.19 6.6 43.9 49 -3.4 25.9
19:40 1024 30.24 853 25.19 7 44.6 46 -3.8 25.1
19:45 1024 30.24 853 25.19 7.4 45.4 44 -3.9 24.9
19:50 1024 30.24 853 25.19 7.6 45.7 44 -3.8 25.1
19:55 1024 30.24 853 25.19 7.7 45.9 44 -3.6 25.5
20:00 1024 30.24 853 25.19 7.6 45.6 44 -4 24.8
20:05 1024 30.24 853 25.19 7.7 45.9 44 -3.8 25.2
20:10 1024 30.24 853 25.19 7.8 46.1 43 -3.9 25
20:15 1024 30.24 853 25.19 7.9 46.2 44 -3.7 25.4
20:20 1024 30.24 853 25.19 7.6 45.7 45 -3.5 25.7
20:25 1024 30.24 853 25.19 7.2 45 47 -3.3 26
20:30 1024 30.24 853 25.19 7.2 44.9 47 -3.4 25.8
20:35 1024 30.24 853 25.19 7.2 44.9 46 -3.8 25.2
20:40 1024 30.24 854 25.22 6.9 44.5 47 -3.7 25.4
20:45 1025 30.27 854 25.22 6.7 44 48 -3.6 25.6
20:50 1025 30.27 854 25.22 6.4 43.6 49 -3.6 25.5
20:55 1025 30.27 854 25.22 6.2 43.2 49 -3.6 25.5
21:00 1025 30.27 854 25.22 6 42.9 50 -3.6 25.6
21:05 1025 30.27 854 25.22 5.9 42.7 51 -3.5 25.7
21:10 1025 30.27 854 25.22 5.7 42.2 52 -3.5 25.7
21:15 1024 30.24 854 25.22 5.2 41.4 55 -3.2 26.3
21:20 1025 30.27 854 25.22 4.4 40 57 -3.3 26.1
21:25 1025 30.27 854 25.22 4 39.3 57 -3.7 25.4
21:30 1025 30.27 854 25.22 4.3 39.8 56 -3.6 25.5
21:35 1025 30.27 854 25.22 4.3 39.8 57 -3.5 25.7
21:40 1025 30.27 854 25.22 4 39.1 58 -3.4 25.8
21:45 1025 30.27 854 25.22 3.6 38.5 60 -3.5 25.8
21:50 1025 30.27 854 25.22 3.5 38.3 59 -3.7 25.4
21:55 1025 30.27 854 25.22 3.8 38.8 57 -3.9 25
22:00 1025 30.27 854 25.22 4.1 39.4 57 -3.7 25.4
22:05 1025 30.27 854 25.22 3.9 39.1 57 -3.7 25.3
22:10 1025 30.27 854 25.22 4.1 39.4 56 -4 24.9
22:15 1025 30.27 854 25.22 4.4 39.9 54 -4 24.7
22:20 1025 30.27 854 25.22 4.4 39.9 55 -3.9 25
22:25 1025 30.27 854 25.22 4.4 39.9 54 -4.1 24.6
22:30 1025 30.27 854 25.22 4.5 40.1 54 -4.1 24.6
22:35 1025 30.27 854 25.22 4.7 40.5 51 -4.5 24
22:40 1025 30.27 854 25.22 5.1 41.1 51 -4.1 24.5
22:45 1025 30.27 854 25.22 4.9 40.8 53 -3.9 25
22:50 1025 30.27 854 25.22 4.3 39.8 55 -4 24.8
22:55 1025 30.27 854 25.22 4 39.3 56 -4 24.7
23:00 1025 30.27 854 25.22 3.5 38.3 58 -3.9 25
23:05 1025 30.27 854 25.22 3 37.4 60 -4 24.8
23:10 1025 30.27 854 25.22 3.1 37.7 58 -4.4 24.1
23:15 1025 30.27 854 25.22 3.7 38.6 56 -4.4 24.1
23:20 1025 30.27 854 25.22 3.9 39.1 54 -4.4 24
23:25 1025 30.27 854 25.22 4.1 39.4 54 -4.3 24.2
23:30 1025 30.27 854 25.22 4 39.2 55 -4.3 24.2
23:35 1025 30.27 854 25.22 4.1 39.4 54 -4.5 23.9
23:40 1025 30.27 854 25.22 4.2 39.5 54 -4.3 24.2
23:45 1025 30.27 854 25.22 3.9 39 56 -4.2 24.5
23:50 1025 30.27 854 25.22 3.8 38.9 54 -4.5 23.8
23:55 1025 30.27 854 25.22 4 39.2 55 -4.2 24.4
24:00 1025 30.27 854 25.22 3.3 38 59 -4 24.8